Time;durP1;ratioP1;P1;durP2;ratioP2;P2;SDS_P1;SDS_P2;PMS_P1;PMS_P2;Temp;Humidity;BMP_temperature;BMP_pressure;BME280_temperature;BME280_humidity;BME280_pressure;Samples;Min_cycle;Max_cycle;Signal;HPM_P1;HPM_P2
2022/03/30 00:01:38;;;;;;;0.10;0.10;;;4.10;99.90;;;;;;5075334;28;20040;-79
2022/03/30 00:04:05;;;;;;;0.20;0.20;;;4.20;99.90;;;;;;5076521;28;20036;-79
2022/03/30 00:06:32;;;;;;;0.20;0.20;;;4.30;99.90;;;;;;5112490;28;20504;-81
2022/03/30 00:08:59;;;;;;;0.20;0.20;;;4.20;99.90;;;;;;5062914;28;20044;-79
2022/03/30 00:11:26;;;;;;;0.10;0.10;;;4.40;99.90;;;;;;5079167;28;20378;-81
2022/03/30 00:13:53;;;;;;;0.20;0.20;;;4.20;99.90;;;;;;5078668;28;20048;-81
2022/03/30 00:16:19;;;;;;;0.20;0.20;;;4.30;99.90;;;;;;5062337;28;20036;-79
2022/03/30 00:18:46;;;;;;;0.10;0.10;;;4.20;99.90;;;;;;5061886;28;20042;-81
2022/03/30 00:21:13;;;;;;;0.20;0.20;;;4.20;99.90;;;;;;5095416;28;20089;-81
2022/03/30 00:23:40;;;;;;;0.20;0.20;;;4.30;99.90;;;;;;5062331;28;20118;-81
2022/03/30 00:26:07;;;;;;;0.40;0.40;;;4.20;99.90;;;;;;5095572;28;20557;-81
2022/03/30 00:28:34;;;;;;;0.10;0.10;;;4.30;99.90;;;;;;5078635;28;20131;-79
2022/03/30 00:31:01;;;;;;;0.20;0.20;;;4.20;99.90;;;;;;5078668;28;20119;-79
2022/03/30 00:33:28;;;;;;;0.20;0.20;;;4.90;99.90;;;;;;5112287;28;20039;-80
2022/03/30 00:35:54;;;;;;;0.60;0.50;;;4.20;99.90;;;;;;5111590;28;20079;-81
2022/03/30 00:38:22;;;;;;;0.20;0.20;;;4.90;99.90;;;;;;5095096;28;20136;-79
2022/03/30 00:40:48;;;;;;;1.17;0.40;;;4.20;99.90;;;;;;5078740;28;20177;-79
2022/03/30 00:43:16;;;;;;;0.35;0.20;;;4.10;99.90;;;;;;5078725;28;20552;-79
2022/03/30 00:45:43;;;;;;;0.10;0.10;;;4.20;99.90;;;;;;5094584;28;20040;-80
2022/03/30 00:48:10;;;;;;;0.10;0.10;;;4.20;99.90;;;;;;5095246;28;20127;-81
2022/03/30 00:50:37;;;;;;;0.10;0.10;;;4.10;99.90;;;;;;5077991;28;20145;-81
2022/03/30 00:53:04;;;;;;;0.22;0.22;;;4.10;99.90;;;;;;5095205;28;20078;-81
2022/03/30 00:55:31;;;;;;;0.20;0.20;;;4.20;99.90;;;;;;5078101;28;20451;-81
2022/03/30 00:57:58;;;;;;;0.15;0.15;;;4.20;99.90;;;;;;5094499;28;20511;-81
2022/03/30 01:00:28;;;;;;;0.10;0.10;;;4.10;99.90;;;;;;5111300;28;20123;-79
2022/03/30 01:02:54;;;;;;;0.20;0.20;;;4.20;99.90;;;;;;5094699;28;20040;-81
2022/03/30 01:05:21;;;;;;;0.20;0.20;;;4.20;99.90;;;;;;5078172;28;20504;-79
2022/03/30 01:07:48;;;;;;;0.20;0.20;;;4.20;99.90;;;;;;5077694;28;20584;-79
2022/03/30 01:10:17;;;;;;;0.13;0.13;;;4.20;99.90;;;;;;5094439;28;20042;-81
2022/03/30 01:12:44;;;;;;;0.10;0.10;;;4.10;99.90;;;;;;5093827;28;20380;-79
2022/03/30 01:15:13;;;;;;;0.17;0.17;;;4.50;99.90;;;;;;5094937;28;20132;-79
2022/03/30 01:17:40;;;;;;;0.20;0.20;;;4.10;99.90;;;;;;5077476;28;20044;-81
2022/03/30 01:20:10;;;;;;;0.10;0.10;;;4.10;99.90;;;;;;5077867;28;20036;-81
2022/03/30 01:22:37;;;;;;;0.20;0.20;;;4.10;99.90;;;;;;5094317;28;20067;-81
2022/03/30 01:25:04;;;;;;;0.13;0.13;;;4.10;99.90;;;;;;5094188;28;20071;-81
2022/03/30 01:27:31;;;;;;;0.20;0.20;;;4.10;99.90;;;;;;5077854;28;20043;-81
2022/03/30 01:32:43;;;;;;;0.20;0.20;;;4.50;99.90;;;;;;5082780;28;20082;-80
2022/03/30 01:35:10;;;;;;;0.20;0.20;;;4.10;99.90;;;;;;5061029;28;20408;-80
2022/03/30 01:37:37;;;;;;;0.20;0.20;;;4.20;99.90;;;;;;5077626;28;20063;-80
2022/03/30 01:40:06;;;;;;;0.20;0.20;;;4.10;99.90;;;;;;5093717;28;20040;-79
2022/03/30 01:42:34;;;;;;;0.10;0.10;;;4.10;99.90;;;;;;5094070;28;20044;-79
2022/03/30 01:45:02;;;;;;;0.20;0.20;;;4.20;99.90;;;;;;5093870;28;20036;-81
2022/03/30 01:47:30;;;;;;;0.20;0.20;;;4.20;99.90;;;;;;5093978;28;20040;-81
2022/03/30 01:49:57;;;;;;;0.20;0.20;;;4.30;99.90;;;;;;5077410;28;20044;-79
2022/03/30 01:52:24;;;;;;;0.10;0.10;;;4.70;99.90;;;;;;5077351;28;20156;-79
2022/03/30 01:54:51;;;;;;;0.20;0.20;;;4.30;99.90;;;;;;5077296;28;20067;-81
2022/03/30 01:57:17;;;;;;;0.20;0.20;;;5.00;99.90;;;;;;5077626;28;20124;-81
2022/03/30 01:59:45;;;;;;;0.20;0.20;;;5.00;99.90;;;;;;5076995;28;20518;-80
2022/03/30 02:02:12;;;;;;;0.20;0.20;;;4.40;99.90;;;;;;5110322;28;20040;-79
2022/03/30 02:04:39;;;;;;;0.20;0.20;;;4.50;99.90;;;;;;5093475;28;20044;-81
2022/03/30 02:07:09;;;;;;;0.20;0.20;;;4.50;99.90;;;;;;5109879;28;20125;-79
2022/03/30 02:09:37;;;;;;;0.17;0.17;;;4.50;99.90;;;;;;5077161;28;20036;-79
2022/03/30 02:12:05;;;;;;;0.20;0.20;;;4.60;99.90;;;;;;5076905;28;20062;-81
2022/03/30 02:14:32;;;;;;;0.20;0.20;;;4.50;99.90;;;;;;5039874;28;20057;-81
2022/03/30 02:16:58;;;;;;;0.10;0.10;;;4.60;99.90;;;;;;5069533;28;20090;-81
2022/03/30 02:19:25;;;;;;;0.20;0.20;;;4.60;99.90;;;;;;5086662;28;20044;-81
2022/03/30 02:21:52;;;;;;;0.20;0.20;;;5.00;99.90;;;;;;5069994;28;20214;-79
2022/03/30 02:24:19;;;;;;;0.10;0.10;;;4.70;99.90;;;;;;5069529;28;20520;-79
2022/03/30 02:26:47;;;;;;;0.10;0.10;;;4.70;99.90;;;;;;5069143;28;20044;-79
2022/03/30 02:29:14;;;;;;;0.20;0.20;;;4.70;99.90;;;;;;5086178;28;20033;-79
2022/03/30 02:31:41;;;;;;;0.10;0.10;;;5.00;99.90;;;;;;5069698;28;20106;-81
2022/03/30 02:34:09;;;;;;;0.20;0.20;;;4.70;99.90;;;;;;5085897;28;20129;-79
2022/03/30 02:36:36;;;;;;;0.38;0.38;;;4.70;99.90;;;;;;5086527;28;20040;-81
2022/03/30 02:39:04;;;;;;;0.17;0.17;;;4.90;99.90;;;;;;5085938;28;20045;-79
2022/03/30 02:41:31;;;;;;;0.15;0.15;;;4.70;99.90;;;;;;5069412;28;20040;-80
2022/03/30 02:43:57;;;;;;;0.10;0.10;;;4.70;99.90;;;;;;5052427;28;20048;-80
2022/03/30 02:46:24;;;;;;;0.10;0.10;;;4.80;99.90;;;;;;5086238;28;20037;-81
2022/03/30 02:48:51;;;;;;;0.10;0.10;;;4.70;99.90;;;;;;5086026;28;20067;-79
2022/03/30 02:51:18;;;;;;;0.20;0.20;;;4.70;99.90;;;;;;5069557;28;20163;-81
2022/03/30 02:53:45;;;;;;;0.17;0.17;;;4.60;99.90;;;;;;5085837;28;20124;-80
2022/03/30 02:56:12;;;;;;;0.10;0.10;;;4.70;99.90;;;;;;5052609;28;20069;-79
2022/03/30 02:58:39;;;;;;;0.20;0.20;;;4.80;99.90;;;;;;5047200;28;20087;-79
2022/03/30 03:01:05;;;;;;;0.20;0.20;;;4.70;99.90;;;;;;5052738;28;20598;-80
2022/03/30 03:03:32;;;;;;;0.20;0.20;;;4.70;99.90;;;;;;5063478;28;20387;-80
2022/03/30 03:05:59;;;;;;;0.10;0.10;;;5.00;99.90;;;;;;5059123;28;20045;-79
2022/03/30 03:08:25;;;;;;;0.20;0.20;;;4.70;99.90;;;;;;5049219;28;20033;-79
2022/03/30 03:10:52;;;;;;;0.20;0.20;;;5.00;99.90;;;;;;5032873;28;20073;-79
2022/03/30 03:13:19;;;;;;;0.10;0.10;;;4.70;99.90;;;;;;5059675;28;20084;-80
2022/03/30 03:15:46;;;;;;;0.10;0.10;;;4.70;99.90;;;;;;5056013;28;20040;-81
2022/03/30 03:18:14;;;;;;;0.17;0.17;;;4.70;99.90;;;;;;5055902;28;20755;-79
2022/03/30 03:20:42;;;;;;;0.10;0.10;;;5.40;99.90;;;;;;5072625;28;20045;-80
2022/03/30 03:23:10;;;;;;;0.20;0.20;;;4.70;99.90;;;;;;5072277;28;20098;-80
2022/03/30 03:25:37;;;;;;;0.20;0.20;;;4.80;99.90;;;;;;5056304;28;20049;-79
2022/03/30 03:28:05;;;;;;;0.10;0.10;;;4.80;99.90;;;;;;5072153;28;20033;-79
2022/03/30 03:30:32;;;;;;;0.20;0.20;;;4.80;99.90;;;;;;5072481;28;20037;-79
2022/03/30 03:33:01;;;;;;;0.73;0.40;;;4.80;99.90;;;;;;5056040;28;20043;-79
2022/03/30 03:35:29;;;;;;;0.10;0.10;;;4.80;99.90;;;;;;5072166;28;20045;-79
2022/03/30 03:37:56;;;;;;;0.10;0.10;;;5.10;99.90;;;;;;5056055;28;20037;-80
2022/03/30 03:40:23;;;;;;;0.10;0.10;;;4.80;99.90;;;;;;5075103;28;20066;-79
2022/03/30 03:42:50;;;;;;;0.10;0.10;;;5.00;99.90;;;;;;5075901;28;20113;-79
2022/03/30 03:45:17;;;;;;;0.13;0.13;;;4.80;99.90;;;;;;5075691;28;20045;-80
2022/03/30 03:47:45;;;;;;;0.10;0.10;;;5.00;99.90;;;;;;5092400;28;20502;-81
2022/03/30 03:50:12;;;;;;;0.10;0.10;;;5.50;99.90;;;;;;5043400;28;20443;-80
2022/03/30 03:52:39;;;;;;;0.20;0.20;;;4.90;99.90;;;;;;5075917;28;20037;-79
2022/03/30 03:55:07;;;;;;;0.10;0.10;;;4.90;99.90;;;;;;5075351;28;20048;-79
2022/03/30 03:57:35;;;;;;;0.10;0.10;;;4.90;99.90;;;;;;5092353;28;20678;-79
2022/03/30 04:00:03;;;;;;;0.10;0.10;;;5.30;99.90;;;;;;5059497;28;20131;-79
2022/03/30 04:02:29;;;;;;;0.15;0.15;;;4.90;99.90;;;;;;5075952;28;20795;-78
2022/03/30 04:04:56;;;;;;;0.20;0.20;;;4.90;99.90;;;;;;5075891;28;20040;-80
2022/03/30 04:07:23;;;;;;;0.10;0.10;;;5.00;99.90;;;;;;5075621;28;20048;-79
2022/03/30 04:09:50;;;;;;;0.10;0.10;;;5.00;99.90;;;;;;5042984;28;20043;-79
2022/03/30 04:12:16;;;;;;;0.10;0.10;;;5.00;99.90;;;;;;5058985;28;20047;-79
2022/03/30 04:14:43;;;;;;;0.10;0.10;;;5.00;99.90;;;;;;5075431;28;20056;-79
2022/03/30 04:17:11;;;;;;;0.10;0.10;;;5.70;99.90;;;;;;5075458;28;20051;-80
2022/03/30 04:19:38;;;;;;;0.10;0.10;;;5.00;99.90;;;;;;5043066;28;20531;-80
2022/03/30 04:22:05;;;;;;;0.10;0.10;;;4.90;99.90;;;;;;5075304;28;20044;-80
2022/03/30 04:24:32;;;;;;;0.20;0.20;;;4.90;99.90;;;;;;5058618;28;20505;-80
2022/03/30 04:26:59;;;;;;;0.10;0.10;;;4.90;99.90;;;;;;5042721;28;20051;-80
2022/03/30 04:29:25;;;;;;;0.10;0.10;;;4.90;99.90;;;;;;5075377;28;20059;-80
2022/03/30 04:31:52;;;;;;;0.10;0.10;;;4.90;99.90;;;;;;5075217;28;20048;-79
2022/03/30 04:34:19;;;;;;;0.10;0.10;;;4.90;99.90;;;;;;5074925;28;20090;-79
2022/03/30 04:36:46;;;;;;;0.10;0.10;;;4.90;99.90;;;;;;5058697;28;20047;-80
2022/03/30 04:39:12;;;;;;;0.10;0.10;;;4.90;99.90;;;;;;5058536;28;20131;-78
2022/03/30 04:41:39;;;;;;;0.20;0.20;;;4.90;99.90;;;;;;5042610;28;20041;-79
2022/03/30 04:44:06;;;;;;;0.10;0.10;;;4.80;99.90;;;;;;5042245;28;20094;-79
2022/03/30 04:46:33;;;;;;;0.10;0.10;;;4.80;99.90;;;;;;5075088;28;20067;-79
2022/03/30 04:49:00;;;;;;;0.20;0.20;;;4.80;99.90;;;;;;5042315;28;20054;-79
2022/03/30 04:51:26;;;;;;;0.10;0.10;;;4.80;99.90;;;;;;5074298;28;20035;-80
2022/03/30 04:53:53;;;;;;;0.10;0.10;;;5.00;99.90;;;;;;5058450;28;20497;-80
2022/03/30 04:56:20;;;;;;;0.10;0.10;;;4.70;99.90;;;;;;5074546;28;20043;-79
2022/03/30 04:58:46;;;;;;;0.10;0.10;;;5.20;99.90;;;;;;5058282;28;20068;-80
2022/03/30 05:01:13;;;;;;;0.22;0.22;;;4.70;99.90;;;;;;5041694;28;20036;-79
2022/03/30 05:03:39;;;;;;;0.20;0.20;;;4.70;99.90;;;;;;5074581;28;20094;-80
2022/03/30 05:06:06;;;;;;;0.20;0.20;;;5.00;99.90;;;;;;5057748;28;20043;-79
2022/03/30 05:08:33;;;;;;;0.10;0.10;;;4.70;99.90;;;;;;5041728;28;20048;-78
2022/03/30 05:11:00;;;;;;;0.10;0.10;;;4.60;99.90;;;;;;5041467;28;20036;-79
2022/03/30 05:13:26;;;;;;;0.10;0.10;;;4.60;99.90;;;;;;5073789;28;20048;-79
2022/03/30 05:15:53;;;;;;;0.10;0.10;;;4.80;99.90;;;;;;5041712;28;20819;-79
2022/03/30 05:18:20;;;;;;;0.10;0.10;;;4.70;99.90;;;;;;5041268;28;20405;-79
2022/03/30 05:20:46;;;;;;;0.20;0.20;;;4.50;99.90;;;;;;5057514;28;20048;-80
2022/03/30 05:23:13;;;;;;;0.20;0.20;;;4.60;99.90;;;;;;5057954;28;20036;-79
2022/03/30 05:25:40;;;;;;;0.20;0.20;;;4.70;99.90;;;;;;5057680;28;20047;-79
2022/03/30 05:28:06;;;;;;;0.10;0.10;;;4.50;99.90;;;;;;5074099;28;20048;-79
2022/03/30 05:30:33;;;;;;;0.10;0.10;;;4.50;99.90;;;;;;5040931;28;20119;-80
2022/03/30 05:33:01;;;;;;;0.10;0.10;;;4.50;99.90;;;;;;5057791;28;20065;-80
2022/03/30 05:35:27;;;;;;;0.20;0.20;;;4.50;99.90;;;;;;5041169;28;20055;-79
2022/03/30 05:37:54;;;;;;;0.10;0.10;;;4.50;99.90;;;;;;5041501;28;20041;-79
2022/03/30 05:40:21;;;;;;;0.20;0.20;;;4.50;99.90;;;;;;5041651;28;20208;-81
2022/03/30 05:42:48;;;;;;;0.13;0.13;;;4.70;99.90;;;;;;5041262;28;20497;-81
2022/03/30 05:45:15;;;;;;;0.10;0.10;;;4.50;99.90;;;;;;5040818;28;20039;-80
2022/03/30 05:47:42;;;;;;;0.20;0.20;;;4.70;99.90;;;;;;5044051;28;20044;-79
2022/03/30 05:50:09;;;;;;;0.10;0.10;;;4.50;99.90;;;;;;5073465;28;20042;-79
2022/03/30 05:52:36;;;;;;;0.35;0.35;;;4.50;99.90;;;;;;5090306;28;20083;-81
2022/03/30 05:55:03;;;;;;;0.17;0.17;;;4.50;99.90;;;;;;5073752;28;20083;-79
2022/03/30 05:57:30;;;;;;;0.10;0.10;;;4.50;99.90;;;;;;5057002;28;20075;-79
2022/03/30 05:59:58;;;;;;;0.20;0.20;;;4.70;99.90;;;;;;5057165;28;20086;-81
2022/03/30 06:02:25;;;;;;;0.10;0.10;;;4.90;99.90;;;;;;5048121;28;20499;-79
2022/03/30 06:04:53;;;;;;;0.10;0.10;;;4.60;99.90;;;;;;5084348;28;20090;-79
2022/03/30 06:07:20;;;;;;;0.20;0.20;;;4.40;99.90;;;;;;5057363;28;20383;-81
2022/03/30 06:09:50;;;;;;;0.20;0.20;;;4.40;99.90;;;;;;5062586;28;20035;-79
2022/03/30 06:12:17;;;;;;;0.20;0.20;;;4.40;99.90;;;;;;5076441;28;20036;-81
2022/03/30 06:14:45;;;;;;;0.20;0.20;;;4.60;99.90;;;;;;5076748;28;20109;-79
2022/03/30 06:17:14;;;;;;;0.10;0.10;;;4.70;99.90;;;;;;5093547;28;20044;-81
2022/03/30 06:19:41;;;;;;;0.15;0.15;;;4.40;99.90;;;;;;5073257;28;20516;-81
2022/03/30 06:22:08;;;;;;;0.10;0.10;;;4.50;99.90;;;;;;5059395;28;20032;-81
2022/03/30 06:24:36;;;;;;;0.20;0.20;;;4.50;99.90;;;;;;5087164;28;20100;-81
2022/03/30 06:27:04;;;;;;;0.10;0.10;;;4.50;99.90;;;;;;5091161;28;20048;-81
2022/03/30 06:29:34;;;;;;;0.17;0.17;;;4.50;99.90;;;;;;5097874;28;20079;-79
2022/03/30 06:32:03;;;;;;;0.10;0.10;;;4.50;99.90;;;;;;5089654;28;20437;-81
2022/03/30 06:34:30;;;;;;;0.13;0.13;;;4.60;99.90;;;;;;5056554;28;20066;-79
2022/03/30 06:36:58;;;;;;;0.20;0.20;;;4.60;99.90;;;;;;5089814;28;20040;-81
2022/03/30 06:39:25;;;;;;;0.20;0.20;;;4.90;99.90;;;;;;5056321;28;20127;-81
2022/03/30 06:41:52;;;;;;;0.20;0.20;;;4.60;99.90;;;;;;5056739;28;20087;-80
2022/03/30 06:44:18;;;;;;;0.20;0.20;;;4.70;99.90;;;;;;5039939;28;20040;-80
2022/03/30 06:46:46;;;;;;;0.15;0.15;;;4.60;99.90;;;;;;5040255;28;20481;-81
2022/03/30 06:49:13;;;;;;;0.13;0.13;;;4.70;99.90;;;;;;5073080;28;20048;-81
2022/03/30 06:51:40;;;;;;;0.20;0.20;;;5.30;99.90;;;;;;5072752;28;20037;-81
2022/03/30 06:54:07;;;;;;;0.10;0.10;;;4.70;99.90;;;;;;5065750;28;20047;-80
2022/03/30 06:56:34;;;;;;;0.10;0.10;;;4.70;99.90;;;;;;5101834;28;20111;-81
2022/03/30 06:59:00;;;;;;;0.10;0.10;;;4.70;99.90;;;;;;5105554;28;20718;-79
2022/03/30 07:01:27;;;;;;;0.10;0.10;;;4.80;99.90;;;;;;5056262;28;20500;-80
2022/03/30 07:03:54;;;;;;;0.10;0.10;;;5.60;99.90;;;;;;5072580;28;20092;-79
2022/03/30 07:06:21;;;;;;;0.10;0.10;;;4.90;99.90;;;;;;5056222;28;20123;-80
2022/03/30 07:11:33;;;;;;;0.10;0.10;;;5.50;99.90;;;;;;5095123;28;20058;-81
2022/03/30 07:13:59;;;;;;;0.10;0.10;;;5.10;99.90;;;;;;5075144;28;20053;-82
2022/03/30 07:16:26;;;;;;;0.20;0.20;;;5.10;99.90;;;;;;5043916;28;20041;-80
2022/03/30 07:18:54;;;;;;;0.10;0.10;;;5.40;99.90;;;;;;5070413;28;20381;-80
2022/03/30 07:21:20;;;;;;;0.10;0.10;;;5.10;99.90;;;;;;5080325;28;20069;-80
2022/03/30 07:23:47;;;;;;;0.20;0.20;;;5.10;99.90;;;;;;5096072;28;20032;-80
2022/03/30 07:26:14;;;;;;;0.10;0.10;;;5.10;99.90;;;;;;5111193;28;20039;-82
2022/03/30 07:28:41;;;;;;;0.15;0.15;;;5.10;99.90;;;;;;5093060;28;20040;-80
2022/03/30 07:31:08;;;;;;;0.10;0.10;;;5.10;99.90;;;;;;5064022;28;20144;-82
2022/03/30 07:33:34;;;;;;;0.10;0.10;;;5.10;99.90;;;;;;5070462;28;20039;-80
2022/03/30 07:36:01;;;;;;;0.20;0.20;;;5.10;99.90;;;;;;5085434;28;20045;-82
2022/03/30 07:38:30;;;;;;;0.10;0.10;;;5.30;99.90;;;;;;5079790;28;20035;-82
2022/03/30 07:41:00;;;;;;;0.10;0.10;;;5.30;99.90;;;;;;5077899;28;20058;-82
2022/03/30 07:43:27;;;;;;;0.10;0.10;;;5.30;99.90;;;;;;5064059;28;20044;-81
2022/03/30 07:45:54;;;;;;;0.10;0.10;;;5.30;99.90;;;;;;5062982;28;20048;-80
2022/03/30 07:48:21;;;;;;;0.10;0.10;;;5.40;99.90;;;;;;5063959;28;20043;-80
2022/03/30 07:50:48;;;;;;;0.10;0.10;;;5.50;99.90;;;;;;5074085;28;20040;-82
2022/03/30 07:53:14;;;;;;;0.10;0.10;;;5.60;99.90;;;;;;5079986;28;20046;-82
2022/03/30 07:55:41;;;;;;;0.10;0.10;;;5.60;99.90;;;;;;5109972;28;20036;-82
2022/03/30 07:58:08;;;;;;;0.10;0.10;;;5.70;99.90;;;;;;5089517;28;20733;-82
2022/03/30 08:00:35;;;;;;;0.13;0.13;;;5.90;99.90;;;;;;5059940;28;20090;-82
2022/03/30 08:03:03;;;;;;;0.10;0.10;;;5.90;99.90;;;;;;5049967;28;20410;-80
2022/03/30 08:05:30;;;;;;;0.10;0.10;;;6.00;99.90;;;;;;5075725;28;20440;-80
2022/03/30 08:07:56;;;;;;;0.10;0.10;;;6.00;99.90;;;;;;5092957;28;20047;-82
2022/03/30 08:10:23;;;;;;;0.20;0.20;;;6.10;99.90;;;;;;5076081;28;20040;-82
2022/03/30 08:12:50;;;;;;;0.10;0.10;;;6.30;99.90;;;;;;5108874;28;20117;-82
2022/03/30 08:15:17;;;;;;;0.10;0.10;;;6.10;99.90;;;;;;5075863;28;20417;-80
2022/03/30 08:17:45;;;;;;;0.10;0.10;;;6.10;99.90;;;;;;5109033;28;20059;-81
2022/03/30 08:22:25;;;;;;;0.10;0.10;;;6.20;99.90;;;;;;5092382;28;20416;-81
2022/03/30 08:22:59;;;;;;;0.10;0.10;;;6.20;99.90;;;;;;5083048;28;20055;-81
2022/03/30 08:25:26;;;;;;;0.10;0.10;;;6.10;99.90;;;;;;5093557;28;20181;-82
2022/03/30 08:27:53;;;;;;;0.10;0.10;;;6.10;99.90;;;;;;5085716;28;20123;-80
2022/03/30 08:30:20;;;;;;;0.10;0.10;;;6.10;99.90;;;;;;5097540;28;20542;-80
2022/03/30 08:32:47;;;;;;;0.10;0.10;;;6.10;99.90;;;;;;5110959;28;20141;-81
2022/03/30 08:35:13;;;;;;;0.10;0.10;;;6.20;99.90;;;;;;5095186;28;20154;-82
2022/03/30 08:37:40;;;;;;;0.10;0.10;;;6.10;99.90;;;;;;5110770;28;20062;-80
2022/03/30 08:40:07;;;;;;;0.10;0.10;;;6.00;99.90;;;;;;5094919;28;20040;-80
2022/03/30 08:42:36;;;;;;;0.10;0.10;;;6.00;99.90;;;;;;5078131;28;20050;-80
2022/03/30 08:45:05;;;;;;;0.13;0.13;;;6.00;99.90;;;;;;5078452;28;20052;-80
2022/03/30 08:47:33;;;;;;;0.10;0.10;;;5.90;99.90;;;;;;5111357;28;20044;-81
2022/03/30 08:50:00;;;;;;;0.15;0.15;;;5.80;99.90;;;;;;5078345;28;20035;-81
2022/03/30 08:52:27;;;;;;;0.10;0.10;;;5.70;99.90;;;;;;5094726;28;20036;-80
2022/03/30 08:54:54;;;;;;;0.10;0.10;;;5.70;99.90;;;;;;5077861;28;20055;-80
2022/03/30 08:57:21;;;;;;;0.10;0.10;;;5.70;99.90;;;;;;5077914;28;20389;-81
2022/03/30 09:00:16;;;;;;;0.10;0.10;;;5.60;99.90;;;;;;5075925;28;20408;-79
2022/03/30 09:02:50;;;;;;;0.10;0.10;;;5.60;99.90;;;;;;5074192;28;20132;-80
2022/03/30 09:05:22;;;;;;;0.10;0.10;;;5.60;99.90;;;;;;5085844;28;20111;-81
2022/03/30 09:07:54;;;;;;;0.10;0.10;;;5.60;99.90;;;;;;5094372;28;20040;-80
2022/03/30 09:10:28;;;;;;;0.10;0.10;;;5.70;99.90;;;;;;5093982;28;20119;-81
2022/03/30 09:12:56;;;;;;;0.10;0.10;;;5.80;99.90;;;;;;5097881;28;20115;-80
2022/03/30 09:15:23;;;;;;;0.10;0.10;;;5.90;99.90;;;;;;5071088;28;20462;-80
2022/03/30 09:17:59;;;;;;;0.10;0.10;;;5.90;99.90;;;;;;5110085;28;20412;-80
2022/03/30 09:20:26;;;;;;;0.10;0.10;;;6.40;99.90;;;;;;5093637;28;20572;-81
2022/03/30 09:22:55;;;;;;;0.10;0.10;;;6.10;99.90;;;;;;5070673;28;20050;-81
2022/03/30 09:25:28;;;;;;;0.10;0.10;;;6.20;99.90;;;;;;5057536;28;20036;-81
2022/03/30 09:27:56;;;;;;;0.10;0.10;;;6.30;99.90;;;;;;5073414;28;20044;-81
2022/03/30 09:30:28;;;;;;;0.10;0.10;;;6.30;99.90;;;;;;5101367;28;20044;-81
2022/03/30 09:32:58;;;;;;;0.10;0.10;;;6.30;99.90;;;;;;5067256;28;20122;-81
2022/03/30 09:35:31;;;;;;;0.38;0.38;;;6.30;99.90;;;;;;5094118;28;20043;-80
2022/03/30 09:38:12;;;;;;;0.10;0.10;;;6.30;99.90;;;;;;5088660;28;20051;-81
2022/03/30 09:40:43;;;;;;;0.10;0.10;;;6.90;99.90;;;;;;5073634;28;20076;-82
2022/03/30 09:43:19;;;;;;;0.10;0.10;;;6.30;99.90;;;;;;5097478;28;20051;-81
2022/03/30 09:45:48;;;;;;;0.10;0.10;;;6.40;99.90;;;;;;5095468;28;20451;-79
2022/03/30 09:48:21;;;;;;;0.10;0.10;;;6.40;99.90;;;;;;5080282;28;20040;-79
2022/03/30 09:50:53;;;;;;;0.10;0.10;;;6.50;99.90;;;;;;5103776;28;20029;-80
2022/03/30 09:53:23;;;;;;;0.10;0.10;;;6.50;99.90;;;;;;5089857;28;20447;-80
2022/03/30 09:56:14;;;;;;;0.10;0.10;;;6.60;99.90;;;;;;5089505;28;20093;-80
2022/03/30 09:58:43;;;;;;;0.10;0.10;;;6.70;99.90;;;;;;5081669;28;20079;-81
2022/03/30 10:01:21;;;;;;;0.10;0.10;;;6.80;99.90;;;;;;5075250;28;20489;-81
2022/03/30 10:04:18;;;;;;;0.10;0.10;;;6.80;99.90;;;;;;5092863;28;20083;-79
2022/03/30 10:06:44;;;;;;;;;;;6.80;99.90;;;;;;5091367;28;20040;-79
2022/03/30 10:09:11;;;;;;;0.10;0.10;;;6.80;99.90;;;;;;5093449;28;19930;-81
2022/03/30 10:11:38;;;;;;;0.10;0.10;;;6.80;99.90;;;;;;5092519;28;20465;-81
2022/03/30 10:14:05;;;;;;;0.10;0.10;;;6.90;99.90;;;;;;5092692;28;20051;-80
2022/03/30 10:16:32;;;;;;;0.10;0.10;;;7.00;99.90;;;;;;5107308;28;20041;-79
2022/03/30 10:18:59;;;;;;;0.10;0.10;;;7.00;99.90;;;;;;5094019;28;20036;-79
2022/03/30 10:21:40;;;;;;;0.10;0.10;;;7.10;99.90;;;;;;5086835;28;20396;-80
2022/03/30 10:24:45;;;;;;;0.10;0.10;;;7.10;99.90;;;;;;5097560;28;20128;-81
2022/03/30 10:27:17;;;;;;;0.10;0.10;;;7.10;99.90;;;;;;5100448;28;20494;-81
2022/03/30 10:29:52;;;;;;;0.10;0.10;;;7.10;99.90;;;;;;5101362;28;20032;-79
2022/03/30 10:32:25;;;;;;;0.10;0.10;;;7.10;99.90;;;;;;5084348;28;20500;-80
2022/03/30 10:35:05;;;;;;;0.10;0.10;;;7.00;99.90;;;;;;5081793;28;20044;-80
2022/03/30 10:37:34;;;;;;;0.10;0.10;;;7.00;99.90;;;;;;5088968;28;20043;-80
2022/03/30 10:40:03;;;;;;;0.10;0.10;;;7.00;99.90;;;;;;5092804;28;20040;-79
2022/03/30 10:42:50;;;;;;;0.08;0.08;;;7.00;99.90;;;;;;5095876;28;20046;-79
2022/03/30 10:45:50;;;;;;;0.10;0.10;;;7.00;99.90;;;;;;5109363;28;20040;-79
2022/03/30 10:48:36;;;;;;;0.10;0.10;;;7.00;99.90;;;;;;5105102;28;20052;-79
2022/03/30 10:51:13;;;;;;;0.10;0.10;;;7.00;99.90;;;;;;5089377;28;20045;-79
2022/03/30 10:53:42;;;;;;;0.10;0.10;;;7.00;99.90;;;;;;5104344;28;20103;-81
2022/03/30 10:56:09;;;;;;;0.10;0.10;;;7.00;99.90;;;;;;5092441;28;20032;-79
2022/03/30 10:58:58;;;;;;;0.10;0.10;;;7.00;99.90;;;;;;5107160;28;20105;-80
2022/03/30 11:01:33;;;;;;;0.10;0.10;;;7.10;99.90;;;;;;5100667;28;20040;-79
2022/03/30 11:04:18;;;;;;;0.00;0.00;;;7.00;99.90;;;;;;5078619;28;20097;-79
2022/03/30 11:06:46;;;;;;;0.10;0.10;;;7.10;99.90;;;;;;5091182;28;20373;-80
2022/03/30 11:09:15;;;;;;;0.10;0.10;;;7.20;99.90;;;;;;5083557;28;20044;-81
2022/03/30 11:11:45;;;;;;;0.10;0.10;;;7.30;99.90;;;;;;5100836;28;20032;-80
2022/03/30 11:14:21;;;;;;;0.10;0.10;;;7.20;99.90;;;;;;5071787;28;20112;-79
2022/03/30 11:16:50;;;;;;;0.10;0.10;;;7.30;99.90;;;;;;5081774;28;20051;-81
2022/03/30 11:19:17;;;;;;;0.10;0.10;;;7.30;99.90;;;;;;5068783;28;20055;-79
2022/03/30 11:22:14;;;;;;;0.10;0.10;;;7.40;99.90;;;;;;5072082;28;20053;-81
2022/03/30 11:24:46;;;;;;;0.10;0.10;;;7.40;99.90;;;;;;5075876;28;20072;-80
2022/03/30 11:27:17;;;;;;;0.10;0.10;;;7.50;99.90;;;;;;5088994;28;20048;-81
2022/03/30 11:29:52;;;;;;;0.10;0.10;;;7.70;99.90;;;;;;5104362;28;20040;-81
2022/03/30 11:32:19;;;;;;;0.05;0.05;;;7.90;99.90;;;;;;5073547;28;20695;-81
2022/03/30 11:34:48;;;;;;;0.10;0.10;;;8.00;99.90;;;;;;5097055;28;20048;-81
2022/03/30 11:37:15;;;;;;;0.10;0.10;;;8.00;99.90;;;;;;5072104;28;20070;-80
2022/03/30 11:39:42;;;;;;;0.10;0.10;;;8.10;99.90;;;;;;5071693;28;20393;-80
2022/03/30 11:42:09;;;;;;;0.10;0.10;;;8.10;99.90;;;;;;5071976;28;20089;-81
2022/03/30 11:47:25;;;;;;;0.10;0.10;;;8.30;99.90;;;;;;5088277;28;20053;-81
2022/03/30 11:49:54;;;;;;;0.10;0.10;;;8.30;99.90;;;;;;5089219;28;20039;-81
2022/03/30 11:52:22;;;;;;;0.10;0.10;;;8.30;99.90;;;;;;5097320;28;20035;-80
2022/03/30 11:54:54;;;;;;;0.10;0.10;;;8.50;99.90;;;;;;5082882;28;20040;-81
2022/03/30 11:57:22;;;;;;;0.10;0.10;;;8.40;99.90;;;;;;5093637;28;20043;-81
2022/03/30 12:00:01;;;;;;;0.10;0.10;;;8.30;99.90;;;;;;5072119;28;20568;-79
2022/03/30 12:02:28;;;;;;;0.10;0.10;;;8.20;99.90;;;;;;5097500;28;20111;-80
2022/03/30 12:04:57;;;;;;;0.10;0.10;;;8.20;99.90;;;;;;5070669;28;20086;-80
2022/03/30 12:07:24;;;;;;;0.10;0.10;;;8.40;99.90;;;;;;5096017;28;20126;-81
2022/03/30 12:09:55;;;;;;;0.10;0.10;;;8.40;99.90;;;;;;5084899;28;20040;-81
2022/03/30 12:12:35;;;;;;;0.10;0.10;;;8.60;99.90;;;;;;5092485;28;20091;-80
2022/03/30 12:15:16;;;;;;;0.10;0.10;;;8.70;99.90;;;;;;5079875;28;20048;-81
2022/03/30 12:18:08;;;;;;;0.00;0.00;;;8.60;99.90;;;;;;5075720;28;20060;-80
2022/03/30 12:20:40;;;;;;;0.10;0.10;;;8.50;99.90;;;;;;5092457;28;20059;-81
2022/03/30 12:23:10;;;;;;;0.10;0.10;;;8.40;99.90;;;;;;5089580;28;20039;-80
2022/03/30 12:25:39;;;;;;;0.10;0.10;;;8.40;99.90;;;;;;5098096;28;20036;-80
2022/03/30 12:28:06;;;;;;;0.10;0.10;;;8.50;99.90;;;;;;5095306;28;20040;-81
2022/03/30 12:30:36;;;;;;;0.05;0.05;;;8.40;99.90;;;;;;5078748;28;20039;-81
2022/03/30 12:33:05;;;;;;;0.10;0.10;;;8.20;99.90;;;;;;5103381;28;20144;-81
2022/03/30 12:35:37;;;;;;;0.10;0.10;;;8.30;99.90;;;;;;5058981;28;20052;-81
2022/03/30 12:38:12;;;;;;;0.10;0.10;;;8.40;99.90;;;;;;5091054;28;20777;-81
2022/03/30 12:40:42;;;;;;;0.10;0.10;;;8.30;99.90;;;;;;5102846;28;20040;-80
2022/03/30 12:43:09;;;;;;;0.10;0.10;;;8.10;99.90;;;;;;5091469;28;20040;-80
2022/03/30 12:45:53;;;;;;;0.10;0.10;;;8.20;99.90;;;;;;5064023;28;20392;-80
2022/03/30 12:48:32;;;;;;;0.00;0.00;;;8.20;99.90;;;;;;5082891;28;20044;-79
2022/03/30 12:51:01;;;;;;;0.10;0.10;;;8.20;99.90;;;;;;5057966;28;20044;-78
2022/03/30 12:53:36;;;;;;;0.10;0.10;;;8.20;99.90;;;;;;5074702;28;20033;-78
2022/03/30 12:56:18;;;;;;;0.10;0.10;;;8.20;99.90;;;;;;5074388;28;20044;-80
2022/03/30 12:59:04;;;;;;;0.10;0.10;;;8.10;99.90;;;;;;5074870;28;20048;-79
2022/03/30 13:01:44;;;;;;;0.10;0.10;;;8.10;99.90;;;;;;5074600;28;20182;-80
2022/03/30 13:04:26;;;;;;;0.10;0.10;;;8.20;99.90;;;;;;5081357;28;20052;-80
2022/03/30 13:07:13;;;;;;;0.10;0.10;;;8.20;99.90;;;;;;5110873;28;20048;-79
2022/03/30 13:10:02;;;;;;;0.10;0.10;;;8.10;99.90;;;;;;5061945;28;20036;-79
2022/03/30 13:12:37;;;;;;;0.10;0.10;;;8.00;99.90;;;;;;5089296;28;20040;-81
2022/03/30 13:15:10;;;;;;;0.20;0.20;;;8.00;99.90;;;;;;5077124;28;20091;-79
2022/03/30 13:17:57;;;;;;;0.08;0.08;;;8.00;99.90;;;;;;5096103;28;20544;-80